QFA237 YSSY-YSCB
Flight info
| Callsign | QFA237 |
|---|---|
| Flight time | 0h 33m |
| Altitude | 26000 |
| Route | MARUB7/34R WOL H65 LEECE |
| Aircraft | A320/M-SDE3FGHIRWY/LB1 |
Departure
| Time | 2026-04-26 04:06 |
|---|---|
| Airport | Sydney Kingsford Smith International Airport (YSSY) |
Arrival
| Time | 2026-04-26 04:39 |
|---|---|
| Airport | Canberra Airport (YSCB) |
| Time | Latitude | Longitude | Altitude | Speed | Heading |
|---|---|---|---|---|---|
| 2026-04-26 03:46 | -33.93661 | 151.17885 | 14 ft | 0 kts | 91° |
| 2026-04-26 03:51 | -33.93661 | 151.17868 | 13 ft | 2 kts | 91° |
| 2026-04-26 03:52 | -33.93660 | 151.17850 | 13 ft | 2 kts | 102° |
| 2026-04-26 03:52 | -33.93654 | 151.17833 | 12 ft | 2 kts | 129° |
| 2026-04-26 03:52 | -33.93643 | 151.17821 | 12 ft | 2 kts | 153° |
| 2026-04-26 03:52 | -33.93629 | 151.17816 | 12 ft | 2 kts | 177° |
| 2026-04-26 03:53 | -33.93621 | 151.17816 | 12 ft | 1 kts | 191° |
| 2026-04-26 03:53 | -33.93628 | 151.17815 | 12 ft | 1 kts | 188° |
| 2026-04-26 03:53 | -33.93624 | 151.17816 | 12 ft | 2 kts | 191° |
| 2026-04-26 03:53 | -33.93616 | 151.17818 | 12 ft | 0 kts | 191° |
| 2026-04-26 03:54 | -33.93614 | 151.17819 | 13 ft | 0 kts | 189° |
| 2026-04-26 03:55 | -33.93615 | 151.17818 | 12 ft | 0 kts | 189° |
| 2026-04-26 03:56 | -33.93648 | 151.17812 | 12 ft | 11 kts | 189° |
| 2026-04-26 03:56 | -33.93740 | 151.17792 | 10 ft | 15 kts | 190° |
| 2026-04-26 03:56 | -33.93854 | 151.17772 | 9 ft | 17 kts | 179° |
| 2026-04-26 03:56 | -33.93979 | 151.17801 | 11 ft | 21 kts | 167° |
| 2026-04-26 03:57 | -33.94140 | 151.17842 | 15 ft | 26 kts | 168° |
| 2026-04-26 03:57 | -33.94329 | 151.17891 | 21 ft | 28 kts | 168° |
| 2026-04-26 03:57 | -33.94466 | 151.17899 | 25 ft | 13 kts | 205° |
| 2026-04-26 03:57 | -33.94561 | 151.17891 | 25 ft | 14 kts | 166° |
| 2026-04-26 03:58 | -33.94657 | 151.17918 | 26 ft | 14 kts | 167° |
| 2026-04-26 03:58 | -33.94752 | 151.17943 | 27 ft | 14 kts | 168° |
| 2026-04-26 03:58 | -33.94852 | 151.17969 | 27 ft | 16 kts | 167° |
| 2026-04-26 03:58 | -33.94973 | 151.18001 | 25 ft | 19 kts | 167° |
| 2026-04-26 03:59 | -33.95089 | 151.18042 | 21 ft | 16 kts | 143° |
| 2026-04-26 03:59 | -33.95101 | 151.18105 | 21 ft | 7 kts | 86° |
| 2026-04-26 03:59 | -33.95091 | 151.18173 | 20 ft | 10 kts | 77° |
| 2026-04-26 03:59 | -33.95069 | 151.18289 | 19 ft | 17 kts | 77° |
| 2026-04-26 04:00 | -33.95045 | 151.18416 | 18 ft | 12 kts | 78° |
| 2026-04-26 04:00 | -33.95044 | 151.18471 | 17 ft | 1 kts | 110° |
| 2026-04-26 04:00 | -33.95047 | 151.18480 | 17 ft | 1 kts | 120° |
| 2026-04-26 04:00 | -33.95068 | 151.18503 | 16 ft | 7 kts | 144° |
| 2026-04-26 04:01 | -33.95125 | 151.18555 | 15 ft | 12 kts | 138° |
| 2026-04-26 04:01 | -33.95203 | 151.18642 | 14 ft | 17 kts | 137° |
| 2026-04-26 04:01 | -33.95312 | 151.18716 | 12 ft | 18 kts | 162° |
| 2026-04-26 04:01 | -33.95439 | 151.18750 | 11 ft | 19 kts | 171° |
| 2026-04-26 04:02 | -33.95571 | 151.18788 | 10 ft | 19 kts | 166° |
| 2026-04-26 04:02 | -33.95709 | 151.18825 | 9 ft | 20 kts | 168° |
| 2026-04-26 04:02 | -33.95848 | 151.18860 | 9 ft | 20 kts | 168° |
| 2026-04-26 04:02 | -33.95986 | 151.18896 | 9 ft | 20 kts | 167° |
| 2026-04-26 04:03 | -33.96124 | 151.18935 | 9 ft | 20 kts | 168° |
| 2026-04-26 04:03 | -33.96260 | 151.18965 | 9 ft | 19 kts | 167° |
| 2026-04-26 04:03 | -33.96395 | 151.19002 | 10 ft | 19 kts | 167° |
| 2026-04-26 04:03 | -33.96537 | 151.19040 | 11 ft | 24 kts | 168° |
| 2026-04-26 04:04 | -33.96721 | 151.19076 | 12 ft | 27 kts | 182° |
| 2026-04-26 04:04 | -33.96904 | 151.19089 | 12 ft | 26 kts | 168° |
| 2026-04-26 04:04 | -33.97077 | 151.19135 | 12 ft | 22 kts | 164° |
| 2026-04-26 04:04 | -33.97123 | 151.19255 | 12 ft | 14 kts | 79° |
| 2026-04-26 04:05 | -33.97075 | 151.19360 | 12 ft | 14 kts | 30° |
| 2026-04-26 04:05 | -33.96971 | 151.19354 | 12 ft | 21 kts | 349° |
| 2026-04-26 04:05 | -33.96589 | 151.19257 | 12 ft | 92 kts | 347° |
| 2026-04-26 04:05 | -33.95741 | 151.19038 | 12 ft | 154 kts | 351° |
| 2026-04-26 04:06 | -33.94634 | 151.18780 | 461 ft | 166 kts | 351° |
| 2026-04-26 04:06 | -33.93500 | 151.18680 | 1167 ft | 164 kts | 18° |
| 2026-04-26 04:06 | -33.92686 | 151.19519 | 1877 ft | 163 kts | 66° |
| 2026-04-26 04:06 | -33.92561 | 151.20943 | 2321 ft | 184 kts | 97° |
| 2026-04-26 04:07 | -33.92989 | 151.22456 | 2813 ft | 204 kts | 114° |
| 2026-04-26 04:07 | -33.93682 | 151.24020 | 3336 ft | 222 kts | 115° |
| 2026-04-26 04:07 | -33.94122 | 151.25848 | 3850 ft | 236 kts | 90° |
| 2026-04-26 04:07 | -33.94041 | 151.27864 | 4395 ft | 252 kts | 83° |
| 2026-04-26 04:08 | -33.93867 | 151.30034 | 5015 ft | 267 kts | 84° |
| 2026-04-26 04:08 | -33.93718 | 151.32263 | 5857 ft | 271 kts | 85° |
| 2026-04-26 04:08 | -33.93605 | 151.34528 | 6733 ft | 274 kts | 86° |
| 2026-04-26 04:08 | -33.93515 | 151.36812 | 7574 ft | 278 kts | 87° |
| 2026-04-26 04:09 | -33.93435 | 151.39149 | 8404 ft | 283 kts | 88° |
| 2026-04-26 04:09 | -33.93639 | 151.41496 | 9172 ft | 288 kts | 111° |
| 2026-04-26 04:09 | -33.94788 | 151.43425 | 9965 ft | 292 kts | 143° |
| 2026-04-26 04:09 | -33.96650 | 151.44394 | 10638 ft | 299 kts | 172° |
| 2026-04-26 04:10 | -33.98764 | 151.44205 | 11062 ft | 316 kts | 199° |
| 2026-04-26 04:10 | -34.00670 | 151.42807 | 11413 ft | 334 kts | 224° |
| 2026-04-26 04:10 | -34.02349 | 151.40747 | 11814 ft | 350 kts | 225° |
| 2026-04-26 04:10 | -34.04092 | 151.38673 | 12464 ft | 356 kts | 224° |
| 2026-04-26 04:11 | -34.05873 | 151.36601 | 13244 ft | 358 kts | 224° |
| 2026-04-26 04:11 | -34.07677 | 151.34520 | 13952 ft | 362 kts | 224° |
| 2026-04-26 04:11 | -34.09513 | 151.32411 | 14623 ft | 367 kts | 224° |
| 2026-04-26 04:11 | -34.11381 | 151.30270 | 15285 ft | 371 kts | 224° |
| 2026-04-26 04:12 | -34.13252 | 151.28126 | 15901 ft | 375 kts | 224° |
| 2026-04-26 04:12 | -34.15165 | 151.25937 | 16524 ft | 380 kts | 224° |
| 2026-04-26 04:12 | -34.17084 | 151.23737 | 17133 ft | 384 kts | 223° |
| 2026-04-26 04:12 | -34.19024 | 151.21512 | 17749 ft | 388 kts | 223° |
| 2026-04-26 04:13 | -34.20983 | 151.19264 | 18359 ft | 392 kts | 223° |
| 2026-04-26 04:13 | -34.22957 | 151.17003 | 18947 ft | 395 kts | 223° |
| 2026-04-26 04:13 | -34.24976 | 151.14684 | 19536 ft | 398 kts | 224° |
| 2026-04-26 04:13 | -34.26976 | 151.12386 | 20096 ft | 402 kts | 224° |
| 2026-04-26 04:14 | -34.28998 | 151.10059 | 20652 ft | 405 kts | 224° |
| 2026-04-26 04:14 | -34.31074 | 151.07669 | 21204 ft | 409 kts | 224° |
| 2026-04-26 04:14 | -34.33127 | 151.05306 | 21734 ft | 413 kts | 224° |
| 2026-04-26 04:14 | -34.35206 | 151.02907 | 22271 ft | 416 kts | 224° |
| 2026-04-26 04:15 | -34.37302 | 151.00490 | 22816 ft | 419 kts | 224° |
| 2026-04-26 04:15 | -34.39420 | 150.98045 | 23541 ft | 417 kts | 224° |
| 2026-04-26 04:15 | -34.41494 | 150.95651 | 24271 ft | 414 kts | 224° |
| 2026-04-26 04:15 | -34.43584 | 150.93231 | 24937 ft | 413 kts | 224° |
| 2026-04-26 04:16 | -34.45639 | 150.90854 | 25458 ft | 415 kts | 224° |
| 2026-04-26 04:16 | -34.47732 | 150.88429 | 25938 ft | 418 kts | 224° |
| 2026-04-26 04:16 | -34.49843 | 150.85983 | 26163 ft | 421 kts | 224° |
| 2026-04-26 04:16 | -34.51969 | 150.83517 | 26166 ft | 421 kts | 224° |
| 2026-04-26 04:17 | -34.54061 | 150.81032 | 26168 ft | 421 kts | 226° |
| 2026-04-26 04:17 | -34.56038 | 150.78409 | 26170 ft | 421 kts | 230° |
| 2026-04-26 04:17 | -34.57877 | 150.75645 | 26171 ft | 421 kts | 233° |
| 2026-04-26 04:17 | -34.59618 | 150.72797 | 26174 ft | 421 kts | 234° |
| 2026-04-26 04:18 | -34.61328 | 150.69954 | 26173 ft | 422 kts | 234° |
| 2026-04-26 04:18 | -34.63055 | 150.67073 | 26176 ft | 421 kts | 234° |
| 2026-04-26 04:18 | -34.64785 | 150.64191 | 26175 ft | 421 kts | 234° |
| 2026-04-26 04:18 | -34.66515 | 150.61310 | 26177 ft | 421 kts | 234° |
| 2026-04-26 04:19 | -34.68240 | 150.58438 | 26178 ft | 421 kts | 234° |
| 2026-04-26 04:19 | -34.69964 | 150.55565 | 26176 ft | 421 kts | 234° |
| 2026-04-26 04:19 | -34.71677 | 150.52707 | 26176 ft | 421 kts | 234° |
| 2026-04-26 04:19 | -34.73396 | 150.49843 | 26178 ft | 421 kts | 234° |
| 2026-04-26 04:20 | -34.75127 | 150.46954 | 26178 ft | 421 kts | 234° |
| 2026-04-26 04:20 | -34.76837 | 150.44098 | 26175 ft | 421 kts | 234° |
| 2026-04-26 04:20 | -34.78555 | 150.41226 | 26083 ft | 422 kts | 234° |
| 2026-04-26 04:20 | -34.80275 | 150.38350 | 25826 ft | 420 kts | 234° |
| 2026-04-26 04:21 | -34.81981 | 150.35495 | 25522 ft | 418 kts | 234° |
| 2026-04-26 04:21 | -34.83690 | 150.32629 | 25119 ft | 414 kts | 235° |
| 2026-04-26 04:21 | -34.85364 | 150.29825 | 24595 ft | 413 kts | 235° |
| 2026-04-26 04:21 | -34.87052 | 150.26987 | 23976 ft | 413 kts | 235° |
| 2026-04-26 04:22 | -34.88720 | 150.24185 | 23333 ft | 414 kts | 235° |
| 2026-04-26 04:22 | -34.90428 | 150.21317 | 22663 ft | 415 kts | 235° |
| 2026-04-26 04:22 | -34.92108 | 150.18492 | 22087 ft | 414 kts | 235° |
| 2026-04-26 04:22 | -34.93794 | 150.15652 | 21611 ft | 410 kts | 235° |
| 2026-04-26 04:23 | -34.95450 | 150.12862 | 21128 ft | 407 kts | 235° |
| 2026-04-26 04:23 | -34.97095 | 150.10086 | 20654 ft | 404 kts | 235° |
| 2026-04-26 04:23 | -34.98738 | 150.07314 | 20171 ft | 401 kts | 235° |
| 2026-04-26 04:23 | -35.00369 | 150.04559 | 19689 ft | 398 kts | 235° |
| 2026-04-26 04:24 | -35.01965 | 150.01863 | 19208 ft | 395 kts | 236° |
| 2026-04-26 04:24 | -35.03571 | 149.99144 | 18743 ft | 392 kts | 236° |
| 2026-04-26 04:24 | -35.05213 | 149.96495 | 18289 ft | 389 kts | 232° |
| 2026-04-26 04:24 | -35.06964 | 149.94022 | 17831 ft | 388 kts | 229° |
| 2026-04-26 04:25 | -35.08804 | 149.91625 | 17351 ft | 385 kts | 227° |
| 2026-04-26 04:25 | -35.10659 | 149.89241 | 16877 ft | 383 kts | 227° |
| 2026-04-26 04:25 | -35.12485 | 149.86896 | 16424 ft | 381 kts | 227° |
| 2026-04-26 04:25 | -35.14302 | 149.84558 | 15971 ft | 378 kts | 227° |
| 2026-04-26 04:26 | -35.16100 | 149.82237 | 15512 ft | 375 kts | 227° |
| 2026-04-26 04:26 | -35.17874 | 149.79945 | 15075 ft | 373 kts | 227° |
| 2026-04-26 04:26 | -35.19654 | 149.77646 | 14611 ft | 370 kts | 227° |
| 2026-04-26 04:26 | -35.21396 | 149.75391 | 14162 ft | 367 kts | 227° |
| 2026-04-26 04:27 | -35.23157 | 149.73109 | 13700 ft | 365 kts | 227° |
| 2026-04-26 04:27 | -35.24886 | 149.70869 | 13253 ft | 363 kts | 227° |
| 2026-04-26 04:27 | -35.26620 | 149.68620 | 12799 ft | 360 kts | 227° |
| 2026-04-26 04:27 | -35.28338 | 149.66389 | 12347 ft | 358 kts | 227° |
| 2026-04-26 04:28 | -35.30047 | 149.64168 | 11893 ft | 355 kts | 227° |
| 2026-04-26 04:28 | -35.31722 | 149.61990 | 11442 ft | 353 kts | 227° |
| 2026-04-26 04:28 | -35.33407 | 149.59801 | 10993 ft | 351 kts | 227° |
| 2026-04-26 04:28 | -35.35070 | 149.57638 | 10603 ft | 346 kts | 227° |
| 2026-04-26 04:29 | -35.36701 | 149.55518 | 10436 ft | 334 kts | 227° |
| 2026-04-26 04:29 | -35.38239 | 149.53516 | 10308 ft | 321 kts | 227° |
| 2026-04-26 04:29 | -35.39750 | 149.51544 | 10178 ft | 309 kts | 227° |
| 2026-04-26 04:29 | -35.41193 | 149.49664 | 10061 ft | 297 kts | 228° |
| 2026-04-26 04:30 | -35.42579 | 149.47853 | 9899 ft | 288 kts | 228° |
| 2026-04-26 04:30 | -35.43948 | 149.46063 | 9532 ft | 286 kts | 227° |
| 2026-04-26 04:30 | -35.45304 | 149.44289 | 9187 ft | 284 kts | 227° |
| 2026-04-26 04:30 | -35.46652 | 149.42529 | 8861 ft | 282 kts | 228° |
| 2026-04-26 04:31 | -35.47990 | 149.40779 | 8532 ft | 279 kts | 228° |
| 2026-04-26 04:31 | -35.49303 | 149.39059 | 8211 ft | 276 kts | 227° |
| 2026-04-26 04:31 | -35.50608 | 149.37350 | 7890 ft | 274 kts | 228° |
| 2026-04-26 04:31 | -35.51900 | 149.35658 | 7582 ft | 271 kts | 228° |
| 2026-04-26 04:32 | -35.53193 | 149.33964 | 7273 ft | 268 kts | 229° |
| 2026-04-26 04:32 | -35.54430 | 149.32303 | 6959 ft | 265 kts | 234° |
| 2026-04-26 04:32 | -35.55303 | 149.30331 | 6634 ft | 260 kts | 254° |
| 2026-04-26 04:32 | -35.55656 | 149.28178 | 6329 ft | 256 kts | 263° |
| 2026-04-26 04:33 | -35.55881 | 149.26065 | 6257 ft | 244 kts | 264° |
| 2026-04-26 04:33 | -35.56094 | 149.24031 | 6242 ft | 238 kts | 264° |
| 2026-04-26 04:33 | -35.56043 | 149.22046 | 6171 ft | 231 kts | 290° |
| 2026-04-26 04:33 | -35.55199 | 149.20444 | 6001 ft | 222 kts | 321° |
| 2026-04-26 04:34 | -35.53832 | 149.19635 | 5745 ft | 219 kts | 347° |
| 2026-04-26 04:34 | -35.52344 | 149.19418 | 5642 ft | 212 kts | 357° |
| 2026-04-26 04:34 | -35.50855 | 149.19409 | 5492 ft | 212 kts | 359° |
| 2026-04-26 04:34 | -35.49398 | 149.19435 | 5249 ft | 208 kts | 359° |
| 2026-04-26 04:35 | -35.47989 | 149.19452 | 5063 ft | 194 kts | 358° |
| 2026-04-26 04:35 | -35.46661 | 149.19447 | 4765 ft | 185 kts | 358° |
| 2026-04-26 04:35 | -35.45420 | 149.19447 | 4518 ft | 173 kts | 358° |
| 2026-04-26 04:35 | -35.44251 | 149.19447 | 4266 ft | 163 kts | 358° |
| 2026-04-26 04:36 | -35.43139 | 149.19447 | 4043 ft | 159 kts | 358° |
| 2026-04-26 04:36 | -35.42047 | 149.19447 | 3838 ft | 150 kts | 358° |
| 2026-04-26 04:36 | -35.41033 | 149.19447 | 3640 ft | 144 kts | 358° |
| 2026-04-26 04:36 | -35.40027 | 149.19447 | 3477 ft | 144 kts | 358° |
| 2026-04-26 04:37 | -35.39032 | 149.19447 | 3304 ft | 143 kts | 358° |
| 2026-04-26 04:37 | -35.38036 | 149.19447 | 3128 ft | 143 kts | 357° |
| 2026-04-26 04:37 | -35.37040 | 149.19447 | 2948 ft | 142 kts | 358° |
| 2026-04-26 04:37 | -35.36056 | 149.19447 | 2764 ft | 141 kts | 358° |
| 2026-04-26 04:38 | -35.35077 | 149.19447 | 2576 ft | 140 kts | 358° |
| 2026-04-26 04:38 | -35.34100 | 149.19447 | 2395 ft | 139 kts | 358° |
| 2026-04-26 04:38 | -35.33133 | 149.19447 | 2216 ft | 138 kts | 358° |
| 2026-04-26 04:38 | -35.32173 | 149.19447 | 2038 ft | 137 kts | 358° |
| 2026-04-26 04:39 | -35.31234 | 149.19447 | 1880 ft | 133 kts | 358° |
| 2026-04-26 04:39 | -35.30526 | 149.19444 | 1878 ft | 64 kts | 1° |
| 2026-04-26 04:39 | -35.30225 | 149.19443 | 1879 ft | 16 kts | 354° |
| 2026-04-26 04:39 | -35.30164 | 149.19342 | 1876 ft | 15 kts | 289° |
| 2026-04-26 04:40 | -35.30204 | 149.19240 | 1874 ft | 15 kts | 188° |
| 2026-04-26 04:40 | -35.30304 | 149.19241 | 1874 ft | 14 kts | 180° |
| 2026-04-26 04:40 | -35.30406 | 149.19240 | 1874 ft | 14 kts | 180° |
| 2026-04-26 04:40 | -35.30512 | 149.19240 | 1874 ft | 15 kts | 181° |
| 2026-04-26 04:41 | -35.30620 | 149.19238 | 1874 ft | 15 kts | 180° |
| 2026-04-26 04:41 | -35.30729 | 149.19240 | 1874 ft | 13 kts | 180° |
| 2026-04-26 04:41 | -35.30778 | 149.19238 | 1874 ft | 1 kts | 213° |
| 2026-04-26 04:41 | -35.30783 | 149.19229 | 1874 ft | 2 kts | 233° |
| 2026-04-26 04:42 | -35.30793 | 149.19200 | 1873 ft | 5 kts | 259° |
| 2026-04-26 04:42 | -35.30795 | 149.19165 | 1873 ft | 2 kts | 268° |
| 2026-04-26 04:42 | -35.30796 | 149.19150 | 1872 ft | 1 kts | 269° |
| 2026-04-26 04:42 | -35.30796 | 149.19145 | 1872 ft | 0 kts | 269° |